createdAt,value
2023-04-28T00:01:28.444Z,8.85
2023-04-28T00:03:30.076Z,8.80
2023-04-28T00:05:31.688Z,8.85
2023-04-28T00:07:33.209Z,8.68
2023-04-28T00:09:34.731Z,8.70
2023-04-28T00:11:36.237Z,9.32
2023-04-28T00:13:38.426Z,8.85
2023-04-28T00:15:39.877Z,9.30
2023-04-28T00:17:41.432Z,9.50
2023-04-28T00:19:42.910Z,10.00
2023-04-28T00:21:44.373Z,8.65
2023-04-28T00:23:45.888Z,10.15
2023-04-28T00:25:53.787Z,9.10
2023-04-28T00:27:55.388Z,8.63
2023-04-28T00:29:56.837Z,8.93
2023-04-28T00:31:58.321Z,9.30
2023-04-28T00:33:59.785Z,9.75
2023-04-28T00:36:01.857Z,9.30
2023-04-28T00:38:03.409Z,9.27
2023-04-28T00:40:05.861Z,9.73
2023-04-28T00:42:07.574Z,8.68
2023-04-28T00:44:09.107Z,9.05
2023-04-28T00:46:22.462Z,8.95
2023-04-28T00:48:24.412Z,9.73
2023-04-28T00:50:26.451Z,8.77
2023-04-28T00:52:28.492Z,8.77
2023-04-28T00:54:29.941Z,9.45
2023-04-28T00:56:31.563Z,8.93
2023-04-28T00:58:34.501Z,8.95
2023-04-28T01:00:36.054Z,9.80
2023-04-28T01:02:37.655Z,8.93
2023-04-28T01:04:39.401Z,9.02
2023-04-28T01:06:42.347Z,9.25
2023-04-28T01:08:47.788Z,10.07
2023-04-28T01:10:49.280Z,8.90
2023-04-28T01:12:50.874Z,9.30
2023-04-28T01:14:52.613Z,9.70
2023-04-28T01:16:54.313Z,9.73
2023-04-28T01:18:56.099Z,9.13
2023-04-28T01:20:57.548Z,9.40
2023-04-28T01:22:58.970Z,9.65
2023-04-28T01:25:00.504Z,9.63
2023-04-28T01:27:03.255Z,9.93
2023-04-28T01:29:04.711Z,9.13
2023-04-28T01:31:06.204Z,9.43
2023-04-28T01:33:07.875Z,8.95
2023-04-28T01:35:09.527Z,8.63
2023-04-28T01:37:11.104Z,8.32
2023-04-28T01:39:12.557Z,8.98
2023-04-28T01:41:14.011Z,8.60
2023-04-28T01:43:15.732Z,8.80
2023-04-28T01:45:17.220Z,9.18
2023-04-28T01:47:18.738Z,8.75
2023-04-28T01:49:20.252Z,9.27
2023-04-28T01:51:21.715Z,8.48
2023-04-28T01:53:23.232Z,8.45
2023-04-28T01:55:24.689Z,7.90
2023-04-28T01:57:28.498Z,8.63
2023-04-28T01:59:30.056Z,9.00
2023-04-28T02:01:31.593Z,8.50
2023-04-28T02:03:33.492Z,8.57
2023-04-28T02:05:35.123Z,8.45
2023-04-28T02:07:36.600Z,8.65
2023-04-28T02:09:38.063Z,9.13
2023-04-28T02:11:39.519Z,8.75
2023-04-28T02:13:41.071Z,9.13
2023-04-28T02:15:43.364Z,7.97
2023-04-28T02:17:45.062Z,8.80
2023-04-28T02:19:46.510Z,8.73
2023-04-28T02:21:48.002Z,8.40
2023-04-28T02:23:50.487Z,8.07
2023-04-28T02:26:00.823Z,8.07
2023-04-28T02:28:02.954Z,7.65
2023-04-28T02:30:06.196Z,7.85
2023-04-28T02:32:08.027Z,7.80
2023-04-28T02:34:09.519Z,8.45
2023-04-28T02:36:11.448Z,8.13
2023-04-28T02:38:12.915Z,7.88
2023-04-28T02:40:14.625Z,7.90
2023-04-28T02:42:16.301Z,9.00
2023-04-28T02:44:18.102Z,8.00
2023-04-28T02:46:19.744Z,7.35
2023-04-28T02:48:21.480Z,7.38
2023-04-28T02:50:23.011Z,7.75
2023-04-28T02:52:24.467Z,7.78
2023-04-28T02:54:28.721Z,8.02
2023-04-28T02:56:30.711Z,8.02
2023-04-28T02:58:32.179Z,7.50
2023-04-28T03:00:33.657Z,7.90
2023-04-28T03:02:35.170Z,6.68
2023-04-28T03:04:36.858Z,7.50
2023-04-28T03:06:38.523Z,6.43
2023-04-28T03:08:40.068Z,7.53
2023-04-28T03:10:41.633Z,7.60
2023-04-28T03:12:43.109Z,6.47
2023-04-28T03:14:44.541Z,7.00
2023-04-28T03:16:46.235Z,7.15
2023-04-28T03:18:47.778Z,7.35
2023-04-28T03:20:50.282Z,7.18
2023-04-28T03:22:51.797Z,7.13
2023-04-28T03:24:53.251Z,6.68
2023-04-28T03:26:54.802Z,6.95
2023-04-28T03:28:56.952Z,6.97
2023-04-28T03:30:58.555Z,6.78
2023-04-28T03:33:00.059Z,6.78
2023-04-28T03:35:01.787Z,6.50
2023-04-28T03:37:03.238Z,6.53
2023-04-28T03:39:04.690Z,7.15
2023-04-28T03:41:06.182Z,6.63
2023-04-28T03:43:07.755Z,6.57
2023-04-28T03:45:09.626Z,6.10
2023-04-28T03:47:11.199Z,6.10
2023-04-28T03:49:12.684Z,6.22
2023-04-28T03:51:14.159Z,6.05
2023-04-28T03:53:16.308Z,5.88
2023-04-28T03:55:17.832Z,6.40
2023-04-28T03:57:19.261Z,6.03
2023-04-28T03:59:21.044Z,5.63
2023-04-28T04:01:22.900Z,6.97
2023-04-28T04:03:26.509Z,6.53
2023-04-28T04:05:28.314Z,5.97
2023-04-28T04:07:29.781Z,6.32
2023-04-28T04:09:31.325Z,7.13
2023-04-28T04:11:32.786Z,5.95
2023-04-28T04:13:34.335Z,6.35
2023-04-28T04:15:36.003Z,6.05
2023-04-28T04:17:37.657Z,6.78
2023-04-28T04:19:39.177Z,5.80
2023-04-28T04:21:41.138Z,5.55
2023-04-28T04:23:42.622Z,5.07
2023-04-28T04:25:44.096Z,6.55
2023-04-28T04:27:45.554Z,5.18
2023-04-28T04:29:47.074Z,5.50
2023-04-28T04:31:49.635Z,5.43
2023-04-28T04:33:51.725Z,5.82
2023-04-28T04:35:53.418Z,5.70
2023-04-28T04:37:54.926Z,4.82
2023-04-28T04:39:56.416Z,4.95
2023-04-28T04:41:57.917Z,4.90
2023-04-28T04:43:59.525Z,4.47
2023-04-28T04:46:01.129Z,4.30
2023-04-28T04:48:03.167Z,4.00
2023-04-28T04:50:04.927Z,5.00
2023-04-28T04:52:06.969Z,4.07
2023-04-28T04:54:08.556Z,4.18
2023-04-28T04:56:10.092Z,4.07
2023-04-28T04:58:11.775Z,3.97
2023-04-28T05:00:13.708Z,4.10
2023-04-28T05:02:15.179Z,4.38
2023-04-28T05:04:16.807Z,3.85
2023-04-28T05:06:18.697Z,4.00
2023-04-28T05:08:20.420Z,4.20
2023-04-28T05:10:22.003Z,3.88
2023-04-28T05:12:23.514Z,4.15
2023-04-28T05:14:25.053Z,4.35
2023-04-28T05:16:26.674Z,3.92
2023-04-28T05:18:28.222Z,4.30
2023-04-28T05:20:29.692Z,4.35
2023-04-28T05:22:31.400Z,4.25
2023-04-28T05:24:32.929Z,3.92
2023-04-28T05:26:35.507Z,3.72
2023-04-28T05:28:37.000Z,3.70
2023-04-28T05:30:38.460Z,4.10
2023-04-28T05:32:40.001Z,3.55
2023-04-28T05:34:41.521Z,3.15
2023-04-28T05:36:43.938Z,3.75
2023-04-28T05:38:45.587Z,3.60
2023-04-28T05:40:47.102Z,3.22
2023-04-28T05:42:48.554Z,3.08
2023-04-28T05:44:50.019Z,3.30
2023-04-28T05:46:51.611Z,3.08
2023-04-28T05:48:53.114Z,3.53
2023-04-28T05:50:54.579Z,3.15
2023-04-28T05:52:56.079Z,3.50
2023-04-28T05:54:57.588Z,2.90
2023-04-28T05:57:01.395Z,2.80
2023-04-28T05:59:04.556Z,2.72
2023-04-28T06:01:06.382Z,2.75
2023-04-28T06:03:11.198Z,2.92
2023-04-28T06:05:13.251Z,2.55
2023-04-28T06:07:14.857Z,2.80
2023-04-28T06:09:16.488Z,2.95
2023-04-28T06:11:22.104Z,3.15
2023-04-28T06:13:23.593Z,3.05
2023-04-28T06:15:25.090Z,3.35
2023-04-28T06:17:26.680Z,2.90
2023-04-28T06:19:28.173Z,3.03
2023-04-28T06:21:29.628Z,2.25
2023-04-28T06:23:31.355Z,2.92
2023-04-28T06:25:32.841Z,3.20
2023-04-28T06:27:34.574Z,2.90
2023-04-28T06:29:36.372Z,3.42
2023-04-28T06:31:38.186Z,3.00
2023-04-28T06:33:39.731Z,2.65
2023-04-28T06:35:41.430Z,3.05
2023-04-28T06:37:43.114Z,3.20
2023-04-28T06:39:44.585Z,3.00
2023-04-28T06:41:47.167Z,3.10
2023-04-28T06:43:48.715Z,2.65
2023-04-28T06:45:50.186Z,2.78
2023-04-28T06:47:52.442Z,2.53
2023-04-28T06:49:54.038Z,2.75
2023-04-28T06:51:55.599Z,2.60
2023-04-28T06:53:57.181Z,3.05
2023-04-28T06:55:58.789Z,2.92
2023-04-28T06:58:00.377Z,2.80
2023-04-28T07:00:04.191Z,3.00
2023-04-28T07:02:05.872Z,2.63
2023-04-28T07:04:07.549Z,2.75
2023-04-28T07:06:09.341Z,2.80
2023-04-28T07:08:10.915Z,2.90
2023-04-28T07:10:13.319Z,3.38
2023-04-28T07:12:15.007Z,3.10
2023-04-28T07:14:17.105Z,3.15
2023-04-28T07:16:19.253Z,3.17
2023-04-28T07:18:20.825Z,3.45
2023-04-28T07:20:22.394Z,3.10
2023-04-28T07:22:24.052Z,3.15
2023-04-28T07:24:27.240Z,3.25
2023-04-28T07:26:28.764Z,3.80
2023-04-28T07:28:30.504Z,2.97
2023-04-28T07:30:32.029Z,3.15
2023-04-28T07:32:33.564Z,3.30
2023-04-28T07:34:35.878Z,3.28
2023-04-28T07:36:37.422Z,2.95
2023-04-28T07:38:38.892Z,3.15
2023-04-28T07:40:43.217Z,2.85
2023-04-28T07:42:45.481Z,3.35
2023-04-28T07:44:47.017Z,3.50
2023-04-28T07:46:50.349Z,3.28
2023-04-28T07:48:54.412Z,3.00
2023-04-28T07:50:55.906Z,3.40
2023-04-28T07:52:58.733Z,3.35
2023-04-28T07:55:00.300Z,3.58
2023-04-28T07:57:03.172Z,4.57
2023-04-28T07:59:04.669Z,3.53
2023-04-28T08:01:06.269Z,4.03
2023-04-28T08:03:07.937Z,3.83
2023-04-28T08:05:10.500Z,3.42
2023-04-28T08:07:13.789Z,4.45
2023-04-28T08:09:15.650Z,3.85
2023-04-28T08:11:17.185Z,3.60
2023-04-28T08:13:19.262Z,4.00
2023-04-28T08:15:20.928Z,3.35
2023-04-28T08:17:22.607Z,3.70
2023-04-28T08:19:24.127Z,3.60
2023-04-28T08:21:25.999Z,3.78
2023-04-28T08:23:30.571Z,3.63
2023-04-28T08:25:32.093Z,4.40
2023-04-28T08:27:34.171Z,3.75
2023-04-28T08:29:35.653Z,4.90
2023-04-28T08:31:37.293Z,4.45
2023-04-28T08:33:39.067Z,3.85
2023-04-28T08:35:40.581Z,3.88
2023-04-28T08:37:42.353Z,4.03
2023-04-28T08:39:43.947Z,4.20
2023-04-28T08:41:45.418Z,4.15
2023-04-28T08:43:47.043Z,3.95
2023-04-28T08:45:48.568Z,3.90
2023-04-28T08:47:51.599Z,3.78
2023-04-28T08:49:57.385Z,4.03
2023-04-28T08:52:00.482Z,3.70
2023-04-28T08:56:13.784Z,3.67
2023-04-28T08:58:15.361Z,4.00
2023-04-28T09:00:17.170Z,4.13
2023-04-28T09:02:20.072Z,4.30
2023-04-28T09:04:22.102Z,4.10
2023-04-28T09:06:23.993Z,3.83
2023-04-28T09:08:25.574Z,4.38
2023-04-28T09:10:27.597Z,3.97
2023-04-28T09:12:38.408Z,3.85
2023-04-28T09:14:39.967Z,3.90
2023-04-28T09:16:41.818Z,3.95
2023-04-28T09:18:57.122Z,4.40
2023-04-28T09:21:13.044Z,3.45
2023-04-28T09:23:18.147Z,4.30
2023-04-28T09:25:22.031Z,3.85
2023-04-28T09:27:29.912Z,4.30
2023-04-28T09:29:32.218Z,4.50
2023-04-28T09:31:40.511Z,4.43
2023-04-28T09:33:57.079Z,4.18
2023-04-28T09:35:58.654Z,4.40
2023-04-28T09:38:00.384Z,4.10
2023-04-28T09:40:10.536Z,4.10
2023-04-28T09:42:32.481Z,4.18
2023-04-28T09:44:33.982Z,4.40
2023-04-28T09:46:35.645Z,4.60
2023-04-28T09:48:38.314Z,5.05
2023-04-28T09:50:40.705Z,4.70
2023-04-28T09:52:45.813Z,4.68
2023-04-28T09:54:50.780Z,4.60
2023-04-28T09:56:52.777Z,4.70
2023-04-28T09:58:56.204Z,5.00
2023-04-28T10:00:59.720Z,4.68
2023-04-28T10:03:01.590Z,5.05
2023-04-28T10:05:03.813Z,4.97
2023-04-28T10:07:05.588Z,5.30
2023-04-28T10:09:07.929Z,4.97
2023-04-28T10:11:09.995Z,4.80
2023-04-28T10:13:12.174Z,4.68
2023-04-28T10:15:13.699Z,5.10
2023-04-28T10:17:15.308Z,4.90
2023-04-28T10:19:17.885Z,4.72
2023-04-28T10:21:21.998Z,4.70
2023-04-28T10:24:06.460Z,4.78
2023-04-28T10:26:14.140Z,4.82
2023-04-28T10:28:16.632Z,5.20
2023-04-28T10:30:28.325Z,4.43
2023-04-28T10:32:32.899Z,5.47
2023-04-28T10:34:34.386Z,5.40
2023-04-28T10:36:55.765Z,5.50
2023-04-28T10:39:12.117Z,4.93
2023-04-28T10:41:32.088Z,5.05
2023-04-28T10:43:39.338Z,4.93
2023-04-28T10:45:56.058Z,5.28
2023-04-28T10:48:06.276Z,5.10
2023-04-28T10:50:09.229Z,5.68
2023-04-28T10:52:42.230Z,5.65
2023-04-28T10:55:22.721Z,5.47
2023-04-28T10:57:24.289Z,5.72
2023-04-28T10:59:27.357Z,5.90
2023-04-28T11:01:32.034Z,5.82
2023-04-28T11:03:49.581Z,5.40
2023-04-28T11:06:28.441Z,5.68
2023-04-28T11:08:30.093Z,5.95
2023-04-28T11:11:09.511Z,5.32
2023-04-28T11:13:33.973Z,4.97
2023-04-28T11:15:35.659Z,5.60
2023-04-28T11:17:42.085Z,5.57
2023-04-28T11:19:45.420Z,6.07
2023-04-28T11:21:51.075Z,6.18
2023-04-28T11:23:52.681Z,5.93
2023-04-28T11:25:55.069Z,5.90
2023-04-28T11:28:03.915Z,5.78
2023-04-28T11:30:20.915Z,6.13
2023-04-28T11:32:35.708Z,5.63
2023-04-28T11:34:37.952Z,5.78
2023-04-28T11:36:41.075Z,6.03
2023-04-28T11:38:46.960Z,5.80
2023-04-28T11:41:00.487Z,6.05
2023-04-28T11:43:04.077Z,5.80
2023-04-28T11:45:07.108Z,5.97
2023-04-28T11:47:08.663Z,6.10
2023-04-28T11:49:10.126Z,6.10
2023-04-28T11:51:38.238Z,6.20
2023-04-28T11:53:45.280Z,5.47
2023-04-28T11:55:46.738Z,5.95
2023-04-28T11:57:48.240Z,5.60
2023-04-28T11:59:50.456Z,6.32
2023-04-28T12:01:53.035Z,6.18
2023-04-28T12:03:55.519Z,5.77
2023-04-28T12:05:57.538Z,5.90
2023-04-28T12:07:59.126Z,6.28
2023-04-28T12:10:12.365Z,5.75
2023-04-28T12:12:18.253Z,6.20
2023-04-28T12:14:21.028Z,6.47
2023-04-28T12:16:39.043Z,6.07
2023-04-28T12:18:59.167Z,7.00
2023-04-28T12:21:01.094Z,6.43
2023-04-28T12:23:02.835Z,6.05
2023-04-28T12:25:16.650Z,6.47
2023-04-28T12:27:25.845Z,6.35
2023-04-28T12:29:40.667Z,6.35
2023-04-28T12:31:54.478Z,5.57
2023-04-28T12:33:56.149Z,6.40
2023-04-28T12:35:58.246Z,5.97
2023-04-28T12:38:00.452Z,5.75
2023-04-28T12:40:04.773Z,5.82
2023-04-28T12:42:06.821Z,5.68
2023-04-28T12:44:08.318Z,6.10
2023-04-28T12:46:10.922Z,5.68
2023-04-28T12:48:12.486Z,6.22
2023-04-28T12:50:13.996Z,5.85
2023-04-28T12:52:15.526Z,5.70
2023-04-28T12:54:17.102Z,5.90
2023-04-28T12:56:18.566Z,5.82
2023-04-28T12:58:20.052Z,6.07
2023-04-28T13:00:23.522Z,5.13
2023-04-28T13:02:25.362Z,5.90
2023-04-28T13:04:27.536Z,5.90
2023-04-28T13:06:29.448Z,6.28
2023-04-28T13:08:34.038Z,5.55
2023-04-28T13:10:35.515Z,5.65
2023-04-28T13:12:37.001Z,5.43
2023-04-28T13:14:38.483Z,5.40
2023-04-28T13:16:40.313Z,5.47
2023-04-28T13:18:41.803Z,5.35
2023-04-28T13:20:43.377Z,6.07
2023-04-28T13:22:45.090Z,5.30
2023-04-28T13:24:46.960Z,5.65
2023-04-28T13:26:48.822Z,5.50
2023-04-28T13:28:52.146Z,5.10
2023-04-28T13:30:53.733Z,5.25
2023-04-28T13:32:57.378Z,5.10
2023-04-28T13:34:59.292Z,5.25
2023-04-28T13:37:00.953Z,5.95
2023-04-28T13:39:02.729Z,4.90
2023-04-28T13:41:04.692Z,5.25
2023-04-28T13:43:06.485Z,5.13
2023-04-28T13:45:08.225Z,5.60
2023-04-28T13:47:10.880Z,5.63
2023-04-28T13:49:12.940Z,5.07
2023-04-28T13:51:14.599Z,5.80
2023-04-28T13:53:17.172Z,5.80
2023-04-28T13:55:18.728Z,5.47
2023-04-28T13:57:20.222Z,4.95
2023-04-28T13:59:22.591Z,5.50
2023-04-28T14:01:25.280Z,5.55
2023-04-28T14:03:27.327Z,5.47
2023-04-28T14:05:31.590Z,6.40
2023-04-28T14:07:37.986Z,5.25
2023-04-28T14:09:40.532Z,6.30
2023-04-28T14:11:42.036Z,5.63
2023-04-28T14:13:43.542Z,5.43
2023-04-28T14:15:58.002Z,5.45
2023-04-28T14:18:01.563Z,5.53
2023-04-28T14:20:04.147Z,5.60
2023-04-28T14:22:05.867Z,5.35
2023-04-28T14:24:07.636Z,5.60
2023-04-28T14:26:09.177Z,5.60
2023-04-28T14:28:11.266Z,4.97
2023-04-28T14:30:12.807Z,5.03
2023-04-28T14:32:16.273Z,4.80
2023-04-28T14:34:17.796Z,5.10
2023-04-28T14:36:19.372Z,5.30
2023-04-28T14:38:21.039Z,4.88
2023-04-28T14:40:22.820Z,5.10
2023-04-28T14:42:31.082Z,4.75
2023-04-28T14:44:32.544Z,4.22
2023-04-28T14:46:34.213Z,4.70
2023-04-28T14:48:36.339Z,4.72
2023-04-28T14:50:37.937Z,5.00
2023-04-28T14:52:39.496Z,4.68
2023-04-28T14:54:41.002Z,5.03
2023-04-28T14:56:42.441Z,5.07
2023-04-28T14:58:43.975Z,4.75
2023-04-28T15:00:45.448Z,4.53
2023-04-28T15:02:47.168Z,5.47
2023-04-28T15:04:49.024Z,4.97
2023-04-28T15:06:50.665Z,4.70
2023-04-28T15:08:52.164Z,5.28
2023-04-28T15:10:53.924Z,4.78
2023-04-28T15:12:55.679Z,5.15
2023-04-28T15:14:57.345Z,5.50
2023-04-28T15:16:59.503Z,4.90
2023-04-28T15:19:00.964Z,4.85
2023-04-28T15:21:02.513Z,4.55
2023-04-28T15:23:04.512Z,5.15
2023-04-28T15:25:06.867Z,5.07
2023-04-28T15:27:08.550Z,4.20
2023-04-28T15:29:10.507Z,4.60
2023-04-28T15:31:11.994Z,4.93
2023-04-28T15:33:17.395Z,4.63
2023-04-28T15:35:19.054Z,4.65
2023-04-28T15:37:43.037Z,4.28
2023-04-28T15:39:44.766Z,4.63
2023-04-28T15:41:46.499Z,4.93
2023-04-28T15:43:49.900Z,5.35
2023-04-28T15:45:51.579Z,4.85
2023-04-28T15:47:54.995Z,5.72
2023-04-28T15:49:58.921Z,6.45
2023-04-28T15:52:00.392Z,5.68
2023-04-28T15:54:01.869Z,5.68
2023-04-28T15:56:03.921Z,6.90
2023-04-28T15:58:05.433Z,6.63
2023-04-28T16:00:09.073Z,6.55
2023-04-28T16:02:10.745Z,6.38
2023-04-28T16:04:12.449Z,6.60
2023-04-28T16:06:14.017Z,7.13
2023-04-28T16:08:15.852Z,7.50
2023-04-28T16:10:17.853Z,6.95
2023-04-28T16:12:20.022Z,8.07
2023-04-28T16:14:21.564Z,7.55
2023-04-28T16:16:23.347Z,7.30
2023-04-28T16:18:24.894Z,7.43
2023-04-28T16:20:26.427Z,7.47
2023-04-28T16:22:30.954Z,8.02
2023-04-28T16:24:32.489Z,7.13
2023-04-28T16:26:34.402Z,8.02
2023-04-28T16:28:35.891Z,7.30
2023-04-28T16:30:37.369Z,6.78
2023-04-28T16:32:40.564Z,7.80
2023-04-28T16:34:42.205Z,8.43
2023-04-28T16:36:43.662Z,9.45
2023-04-28T16:38:46.570Z,7.70
2023-04-28T16:40:48.666Z,8.00
2023-04-28T16:42:50.111Z,8.38
2023-04-28T16:44:52.946Z,8.38
2023-04-28T16:46:55.071Z,8.93
2023-04-28T16:48:56.505Z,8.25
2023-04-28T16:50:57.970Z,8.27
2023-04-28T16:52:59.506Z,8.77
2023-04-28T16:55:01.151Z,7.90
2023-04-28T16:57:04.089Z,8.23
2023-04-28T16:59:05.575Z,8.50
2023-04-28T17:01:07.275Z,8.15
2023-04-28T17:03:08.842Z,8.68
2023-04-28T17:05:10.739Z,9.00
2023-04-28T17:07:12.411Z,8.48
2023-04-28T17:09:13.859Z,9.07
2023-04-28T17:11:18.576Z,9.05
2023-04-28T17:13:20.065Z,9.00
2023-04-28T17:15:21.587Z,9.10
2023-04-28T17:17:23.105Z,9.13
2023-04-28T17:19:24.675Z,9.55
2023-04-28T17:21:29.439Z,9.18
2023-04-28T17:23:30.975Z,9.57
2023-04-28T17:25:32.461Z,10.02
2023-04-28T17:27:33.949Z,9.63
2023-04-28T17:29:35.437Z,10.32
2023-04-28T17:31:38.906Z,9.82
2023-04-28T17:33:40.776Z,9.95
2023-04-28T17:35:42.292Z,10.00
2023-04-28T17:37:43.965Z,10.43
2023-04-28T17:39:45.431Z,10.00
2023-04-28T17:41:47.625Z,10.43
2023-04-28T17:43:51.442Z,9.60
2023-04-28T17:45:56.608Z,11.00
2023-04-28T17:48:00.609Z,9.55
2023-04-28T17:50:02.638Z,9.80
2023-04-28T17:52:04.118Z,10.63
2023-04-28T17:54:09.409Z,10.93
2023-04-28T17:56:11.019Z,9.43
2023-04-28T17:58:12.709Z,10.27
2023-04-28T18:00:14.446Z,9.35
2023-04-28T18:02:18.345Z,9.80
2023-04-28T18:04:19.877Z,8.75
2023-04-28T18:06:22.399Z,8.88
2023-04-28T18:08:23.943Z,8.82
2023-04-28T18:10:28.048Z,8.07
2023-04-28T18:12:29.800Z,8.60
2023-04-28T18:14:31.633Z,8.50
2023-04-28T18:16:33.158Z,9.18
2023-04-28T18:18:35.590Z,7.95
2023-04-28T18:20:37.263Z,8.70
2023-04-28T18:22:39.212Z,8.75
2023-04-28T18:24:40.871Z,8.98
2023-04-28T18:26:42.387Z,9.15
2023-04-28T18:28:48.094Z,9.40
2023-04-28T18:30:50.013Z,8.95
2023-04-28T18:32:52.225Z,8.90
2023-04-28T18:34:53.730Z,9.52
2023-04-28T18:36:55.276Z,9.10
2023-04-28T18:38:57.651Z,9.82
2023-04-28T18:40:59.136Z,9.20
2023-04-28T18:43:02.441Z,10.23
2023-04-28T18:45:07.978Z,10.10
2023-04-28T18:47:09.582Z,10.65
2023-04-28T18:49:11.155Z,10.75
2023-04-28T18:51:12.779Z,10.35
2023-04-28T18:53:14.329Z,11.35
2023-04-28T18:55:16.186Z,11.68
2023-04-28T18:57:17.708Z,11.25
2023-04-28T18:59:19.166Z,11.80
2023-04-28T19:01:21.249Z,12.05
2023-04-28T19:03:23.379Z,12.48
2023-04-28T19:05:25.805Z,11.52
2023-04-28T19:07:28.289Z,12.35
2023-04-28T19:09:29.849Z,12.05
2023-04-28T19:11:31.435Z,13.23
2023-04-28T19:13:34.340Z,13.30
2023-04-28T19:15:35.969Z,13.10
2023-04-28T19:17:37.491Z,13.05
2023-04-28T19:19:39.011Z,13.90
2023-04-28T19:21:42.349Z,13.55
2023-04-28T19:23:43.825Z,13.52
2023-04-28T19:25:45.459Z,13.93
2023-04-28T19:27:47.400Z,13.65
2023-04-28T19:29:49.100Z,14.40
2023-04-28T19:31:50.895Z,13.98
2023-04-28T19:33:52.468Z,14.60
2023-04-28T19:35:57.159Z,14.93
2023-04-28T19:37:58.593Z,14.82
2023-04-28T19:40:00.213Z,15.60
2023-04-28T19:42:03.056Z,15.40
2023-04-28T19:44:05.160Z,14.90
2023-04-28T19:46:06.672Z,16.05
2023-04-28T19:48:08.709Z,15.23
2023-04-28T19:50:10.646Z,16.00
2023-04-28T19:52:12.107Z,16.00
2023-04-28T19:54:16.261Z,16.08
2023-04-28T19:56:18.190Z,15.05
2023-04-28T19:58:19.646Z,17.88
2023-04-28T20:00:21.785Z,16.52
2023-04-28T20:02:23.565Z,16.70
2023-04-28T20:04:25.930Z,17.48
2023-04-28T20:06:27.660Z,17.00
2023-04-28T20:08:29.479Z,17.52
2023-04-28T20:10:30.935Z,17.00
2023-04-28T20:12:33.062Z,16.60
2023-04-28T20:14:35.363Z,17.52
2023-04-28T20:16:36.873Z,17.27
2023-04-28T20:18:38.402Z,17.20
2023-04-28T20:20:39.841Z,17.80
2023-04-28T20:22:41.414Z,17.95
2023-04-28T20:24:42.964Z,17.48
2023-04-28T20:26:44.501Z,18.05
2023-04-28T20:28:47.189Z,18.42
2023-04-28T20:30:48.654Z,18.42
2023-04-28T20:32:50.756Z,18.35
2023-04-28T20:34:52.297Z,18.35
2023-04-28T20:36:54.139Z,19.77
2023-04-28T20:38:56.160Z,18.98
2023-04-28T20:40:58.838Z,20.10
2023-04-28T20:43:02.146Z,18.83
2023-04-28T20:45:04.433Z,19.33
2023-04-28T20:47:06.016Z,20.08
2023-04-28T20:49:08.176Z,18.90
2023-04-28T20:51:11.002Z,18.73
2023-04-28T20:53:12.564Z,19.10
2023-04-28T20:55:14.116Z,19.83
2023-04-28T20:57:15.581Z,20.27
2023-04-28T20:59:17.041Z,21.13
2023-04-28T21:01:18.599Z,21.48
2023-04-28T21:03:23.629Z,22.13
2023-04-28T21:05:25.326Z,19.88
2023-04-28T21:07:26.777Z,20.33
2023-04-28T21:09:28.333Z,19.83
2023-04-28T21:11:29.807Z,18.23
2023-04-28T21:13:31.280Z,18.15
2023-04-28T21:15:40.732Z,18.90
2023-04-28T21:17:43.060Z,19.30
2023-04-28T21:19:44.597Z,19.00
2023-04-28T21:21:46.232Z,18.40
2023-04-28T21:23:48.536Z,15.75
2023-04-28T21:25:50.046Z,17.27
2023-04-28T21:27:53.028Z,16.10
2023-04-28T21:29:54.505Z,17.65
2023-04-28T21:31:56.093Z,16.67
2023-04-28T21:33:57.737Z,17.13
2023-04-28T21:36:05.533Z,17.05
2023-04-28T21:38:07.850Z,16.58
2023-04-28T21:40:09.664Z,16.73
2023-04-28T21:42:11.219Z,18.83
2023-04-28T21:44:13.082Z,16.83
2023-04-28T21:46:15.099Z,17.13
2023-04-28T21:48:17.242Z,17.77
2023-04-28T21:50:18.955Z,17.73
2023-04-28T21:52:20.396Z,18.55
2023-04-28T21:54:21.860Z,18.65
2023-04-28T21:56:23.316Z,19.38
2023-04-28T21:58:24.818Z,18.13
2023-04-28T22:00:27.954Z,17.58
2023-04-28T22:02:29.613Z,18.08
2023-04-28T22:04:31.433Z,17.10
2023-04-28T22:06:33.041Z,17.17
2023-04-28T22:08:34.490Z,15.98
2023-04-28T22:10:36.504Z,15.60
2023-04-28T22:12:38.599Z,16.88
2023-04-28T22:14:41.645Z,19.00
2023-04-28T22:16:43.276Z,17.05
2023-04-28T22:18:44.749Z,17.02
2023-04-28T22:20:46.863Z,18.00
2023-04-28T22:22:48.341Z,18.25
2023-04-28T22:24:50.284Z,16.83
2023-04-28T22:26:51.750Z,17.60
2023-04-28T22:28:53.259Z,17.10
2023-04-28T22:30:54.832Z,16.45
2023-04-28T22:32:56.593Z,16.40
2023-04-28T22:34:58.110Z,15.43
2023-04-28T22:36:59.578Z,15.57
2023-04-28T22:39:01.165Z,16.70
2023-04-28T22:41:02.729Z,16.75
2023-04-28T22:43:04.232Z,15.13
2023-04-28T22:45:06.722Z,14.38
2023-04-28T22:47:08.489Z,15.98
2023-04-28T22:49:09.975Z,15.60
2023-04-28T22:51:11.436Z,15.13
2023-04-28T22:53:12.973Z,15.13
2023-04-28T22:55:14.716Z,14.27
2023-04-28T22:57:16.299Z,18.17
2023-04-28T22:59:18.054Z,16.83
2023-04-28T23:01:19.669Z,15.93
2023-04-28T23:03:21.569Z,16.30
2023-04-28T23:05:23.144Z,15.93
2023-04-28T23:07:24.652Z,16.70
2023-04-28T23:09:26.514Z,17.48
2023-04-28T23:11:27.974Z,15.80
2023-04-28T23:13:29.459Z,17.13
2023-04-28T23:15:30.962Z,17.83
2023-04-28T23:17:32.472Z,18.10
2023-04-28T23:19:38.957Z,18.95
2023-04-28T23:21:40.753Z,19.20
2023-04-28T23:23:42.193Z,19.23
2023-04-28T23:25:43.929Z,19.17
2023-04-28T23:27:46.028Z,19.70
2023-04-28T23:29:47.489Z,19.88
2023-04-28T23:31:52.638Z,19.75
2023-04-28T23:33:54.172Z,21.40
2023-04-28T23:35:55.719Z,21.38
2023-04-28T23:37:57.240Z,21.67
2023-04-28T23:39:58.689Z,22.45
2023-04-28T23:42:01.780Z,22.67
2023-04-28T23:44:03.218Z,22.75
2023-04-28T23:46:04.785Z,23.60
2023-04-28T23:48:06.804Z,23.95
2023-04-28T23:50:09.803Z,24.38
2023-04-28T23:52:11.272Z,25.00
2023-04-28T23:54:13.166Z,25.20
2023-04-28T23:56:14.678Z,24.73
2023-04-28T23:58:16.384Z,25.20
